sensor_id;sensor_type;location;lat;lon;timestamp;P1;durP1;ratioP1;P2;durP2;ratioP2
16246;SDS011;8231;50.866;7.944;2024-01-30T00:02:18;14.60;;;11.40;;
16246;SDS011;8231;50.866;7.944;2024-01-30T00:04:48;14.13;;;10.40;;
16246;SDS011;8231;50.866;7.944;2024-01-30T00:07:16;13.03;;;10.93;;
16246;SDS011;8231;50.866;7.944;2024-01-30T00:09:46;13.77;;;11.10;;
16246;SDS011;8231;50.866;7.944;2024-01-30T00:12:14;11.90;;;10.03;;
16246;SDS011;8231;50.866;7.944;2024-01-30T00:14:43;13.97;;;10.60;;
16246;SDS011;8231;50.866;7.944;2024-01-30T00:17:11;13.37;;;10.27;;
16246;SDS011;8231;50.866;7.944;2024-01-30T00:19:40;15.57;;;11.60;;
16246;SDS011;8231;50.866;7.944;2024-01-30T00:22:11;13.93;;;10.63;;
16246;SDS011;8231;50.866;7.944;2024-01-30T00:24:39;13.23;;;10.87;;
16246;SDS011;8231;50.866;7.944;2024-01-30T00:27:07;13.23;;;11.10;;
16246;SDS011;8231;50.866;7.944;2024-01-30T00:29:36;15.07;;;11.40;;
16246;SDS011;8231;50.866;7.944;2024-01-30T00:32:04;18.57;;;15.23;;
16246;SDS011;8231;50.866;7.944;2024-01-30T00:34:33;14.87;;;12.70;;
16246;SDS011;8231;50.866;7.944;2024-01-30T00:37:01;18.97;;;11.80;;
16246;SDS011;8231;50.866;7.944;2024-01-30T00:39:31;16.87;;;11.37;;
16246;SDS011;8231;50.866;7.944;2024-01-30T00:42:00;15.23;;;11.57;;
16246;SDS011;8231;50.866;7.944;2024-01-30T00:44:28;14.63;;;10.97;;
16246;SDS011;8231;50.866;7.944;2024-01-30T00:46:56;11.53;;;10.00;;
16246;SDS011;8231;50.866;7.944;2024-01-30T00:49:25;17.20;;;12.20;;
16246;SDS011;8231;50.866;7.944;2024-01-30T00:51:53;15.13;;;11.87;;
16246;SDS011;8231;50.866;7.944;2024-01-30T00:54:22;13.20;;;11.03;;
16246;SDS011;8231;50.866;7.944;2024-01-30T00:56:51;16.07;;;11.23;;
16246;SDS011;8231;50.866;7.944;2024-01-30T00:59:19;15.07;;;10.77;;
16246;SDS011;8231;50.866;7.944;2024-01-30T01:01:48;16.83;;;11.73;;
16246;SDS011;8231;50.866;7.944;2024-01-30T01:04:16;17.37;;;11.20;;
16246;SDS011;8231;50.866;7.944;2024-01-30T01:06:45;14.97;;;11.30;;
16246;SDS011;8231;50.866;7.944;2024-01-30T01:09:13;16.57;;;10.70;;
16246;SDS011;8231;50.866;7.944;2024-01-30T01:11:41;17.60;;;11.97;;
16246;SDS011;8231;50.866;7.944;2024-01-30T01:14:11;17.10;;;12.43;;
16246;SDS011;8231;50.866;7.944;2024-01-30T01:16:39;13.37;;;11.40;;
16246;SDS011;8231;50.866;7.944;2024-01-30T01:19:07;12.47;;;9.83;;
16246;SDS011;8231;50.866;7.944;2024-01-30T01:21:36;15.23;;;11.27;;
16246;SDS011;8231;50.866;7.944;2024-01-30T01:24:05;12.57;;;10.50;;
16246;SDS011;8231;50.866;7.944;2024-01-30T01:26:33;13.87;;;10.83;;
16246;SDS011;8231;50.866;7.944;2024-01-30T01:29:01;15.87;;;11.57;;
16246;SDS011;8231;50.866;7.944;2024-01-30T01:31:37;15.23;;;10.27;;
16246;SDS011;8231;50.866;7.944;2024-01-30T01:34:10;13.10;;;11.30;;
16246;SDS011;8231;50.866;7.944;2024-01-30T01:36:39;18.20;;;13.03;;
16246;SDS011;8231;50.866;7.944;2024-01-30T01:39:07;13.83;;;11.17;;
16246;SDS011;8231;50.866;7.944;2024-01-30T01:41:36;13.30;;;11.13;;
16246;SDS011;8231;50.866;7.944;2024-01-30T01:44:04;14.17;;;10.33;;
16246;SDS011;8231;50.866;7.944;2024-01-30T01:46:32;12.83;;;10.90;;
16246;SDS011;8231;50.866;7.944;2024-01-30T01:49:03;12.90;;;10.60;;
16246;SDS011;8231;50.866;7.944;2024-01-30T01:51:33;16.47;;;11.93;;
16246;SDS011;8231;50.866;7.944;2024-01-30T01:54:04;14.10;;;10.83;;
16246;SDS011;8231;50.866;7.944;2024-01-30T01:56:32;15.40;;;13.13;;
16246;SDS011;8231;50.866;7.944;2024-01-30T01:59:04;16.90;;;12.47;;
16246;SDS011;8231;50.866;7.944;2024-01-30T02:01:34;13.37;;;10.50;;
16246;SDS011;8231;50.866;7.944;2024-01-30T02:04:06;14.47;;;10.67;;
16246;SDS011;8231;50.866;7.944;2024-01-30T02:06:35;14.53;;;11.07;;
16246;SDS011;8231;50.866;7.944;2024-01-30T02:09:04;16.40;;;11.60;;
16246;SDS011;8231;50.866;7.944;2024-01-30T02:11:33;12.53;;;9.87;;
16246;SDS011;8231;50.866;7.944;2024-01-30T02:14:03;19.90;;;11.87;;
16246;SDS011;8231;50.866;7.944;2024-01-30T02:16:31;12.10;;;10.23;;
16246;SDS011;8231;50.866;7.944;2024-01-30T02:19:00;15.03;;;11.23;;
16246;SDS011;8231;50.866;7.944;2024-01-30T02:21:33;12.73;;;9.50;;
16246;SDS011;8231;50.866;7.944;2024-01-30T02:24:02;12.87;;;10.97;;
16246;SDS011;8231;50.866;7.944;2024-01-30T02:26:31;10.53;;;9.30;;
16246;SDS011;8231;50.866;7.944;2024-01-30T02:28:59;12.47;;;9.90;;
16246;SDS011;8231;50.866;7.944;2024-01-30T02:31:28;11.97;;;9.77;;
16246;SDS011;8231;50.866;7.944;2024-01-30T02:33:56;13.43;;;10.87;;
16246;SDS011;8231;50.866;7.944;2024-01-30T02:36:24;17.73;;;11.27;;
16246;SDS011;8231;50.866;7.944;2024-01-30T02:38:54;16.53;;;11.77;;
16246;SDS011;8231;50.866;7.944;2024-01-30T02:41:22;18.53;;;11.50;;
16246;SDS011;8231;50.866;7.944;2024-01-30T02:43:50;15.00;;;11.17;;
16246;SDS011;8231;50.866;7.944;2024-01-30T02:46:19;16.57;;;10.53;;
16246;SDS011;8231;50.866;7.944;2024-01-30T02:48:47;15.10;;;10.30;;
16246;SDS011;8231;50.866;7.944;2024-01-30T02:51:16;14.77;;;10.90;;
16246;SDS011;8231;50.866;7.944;2024-01-30T02:53:44;15.23;;;11.87;;
16246;SDS011;8231;50.866;7.944;2024-01-30T02:56:14;18.50;;;12.37;;
16246;SDS011;8231;50.866;7.944;2024-01-30T02:58:42;18.87;;;11.27;;
16246;SDS011;8231;50.866;7.944;2024-01-30T03:01:10;13.40;;;10.43;;
16246;SDS011;8231;50.866;7.944;2024-01-30T03:03:38;16.10;;;11.80;;
16246;SDS011;8231;50.866;7.944;2024-01-30T03:06:07;18.23;;;11.50;;
16246;SDS011;8231;50.866;7.944;2024-01-30T03:08:35;16.60;;;11.30;;
16246;SDS011;8231;50.866;7.944;2024-01-30T03:11:03;13.27;;;10.60;;
16246;SDS011;8231;50.866;7.944;2024-01-30T03:13:33;15.93;;;10.97;;
16246;SDS011;8231;50.866;7.944;2024-01-30T03:16:01;16.97;;;12.30;;
16246;SDS011;8231;50.866;7.944;2024-01-30T03:18:30;14.73;;;10.37;;
16246;SDS011;8231;50.866;7.944;2024-01-30T03:20:58;12.93;;;10.07;;
16246;SDS011;8231;50.866;7.944;2024-01-30T03:23:27;15.70;;;12.00;;
16246;SDS011;8231;50.866;7.944;2024-01-30T03:25:55;14.60;;;10.47;;
16246;SDS011;8231;50.866;7.944;2024-01-30T03:28:24;14.70;;;10.00;;
16246;SDS011;8231;50.866;7.944;2024-01-30T03:30:53;14.07;;;10.13;;
16246;SDS011;8231;50.866;7.944;2024-01-30T03:33:22;14.80;;;10.20;;
16246;SDS011;8231;50.866;7.944;2024-01-30T03:35:50;18.47;;;12.50;;
16246;SDS011;8231;50.866;7.944;2024-01-30T03:38:18;15.47;;;12.50;;
16246;SDS011;8231;50.866;7.944;2024-01-30T03:40:47;16.80;;;12.03;;
16246;SDS011;8231;50.866;7.944;2024-01-30T03:43:15;10.97;;;9.70;;
16246;SDS011;8231;50.866;7.944;2024-01-30T03:45:43;15.70;;;10.57;;
16246;SDS011;8231;50.866;7.944;2024-01-30T03:48:13;14.33;;;9.83;;
16246;SDS011;8231;50.866;7.944;2024-01-30T03:50:41;18.17;;;10.97;;
16246;SDS011;8231;50.866;7.944;2024-01-30T03:53:09;14.47;;;10.13;;
16246;SDS011;8231;50.866;7.944;2024-01-30T03:55:37;13.83;;;11.23;;
16246;SDS011;8231;50.866;7.944;2024-01-30T03:58:06;16.90;;;11.63;;
16246;SDS011;8231;50.866;7.944;2024-01-30T04:00:34;13.87;;;11.03;;
16246;SDS011;8231;50.866;7.944;2024-01-30T04:03:02;13.53;;;11.30;;
16246;SDS011;8231;50.866;7.944;2024-01-30T04:05:33;15.37;;;11.37;;
16246;SDS011;8231;50.866;7.944;2024-01-30T04:08:01;17.83;;;11.47;;
16246;SDS011;8231;50.866;7.944;2024-01-30T04:10:29;16.97;;;10.73;;
16246;SDS011;8231;50.866;7.944;2024-01-30T04:12:58;15.33;;;10.90;;
16246;SDS011;8231;50.866;7.944;2024-01-30T04:15:26;16.03;;;11.60;;
16246;SDS011;8231;50.866;7.944;2024-01-30T04:17:57;13.03;;;10.53;;
16246;SDS011;8231;50.866;7.944;2024-01-30T04:20:25;16.43;;;11.90;;
16246;SDS011;8231;50.866;7.944;2024-01-30T04:22:55;17.17;;;12.33;;
16246;SDS011;8231;50.866;7.944;2024-01-30T04:25:24;13.73;;;9.27;;
16246;SDS011;8231;50.866;7.944;2024-01-30T04:27:52;16.47;;;10.57;;
16246;SDS011;8231;50.866;7.944;2024-01-30T04:30:21;15.97;;;10.97;;
16246;SDS011;8231;50.866;7.944;2024-01-30T04:32:49;17.37;;;11.03;;
16246;SDS011;8231;50.866;7.944;2024-01-30T04:35:17;15.50;;;11.13;;
16246;SDS011;8231;50.866;7.944;2024-01-30T04:37:47;18.40;;;12.47;;
16246;SDS011;8231;50.866;7.944;2024-01-30T04:40:17;15.83;;;11.67;;
16246;SDS011;8231;50.866;7.944;2024-01-30T04:42:45;19.63;;;11.87;;
16246;SDS011;8231;50.866;7.944;2024-01-30T04:45:13;15.70;;;11.27;;
16246;SDS011;8231;50.866;7.944;2024-01-30T04:47:42;14.13;;;11.10;;
16246;SDS011;8231;50.866;7.944;2024-01-30T04:50:10;16.80;;;10.77;;
16246;SDS011;8231;50.866;7.944;2024-01-30T04:52:38;14.27;;;10.77;;
16246;SDS011;8231;50.866;7.944;2024-01-30T04:55:07;16.90;;;10.80;;
16246;SDS011;8231;50.866;7.944;2024-01-30T04:57:37;19.20;;;12.60;;
16246;SDS011;8231;50.866;7.944;2024-01-30T05:00:06;17.23;;;11.27;;
16246;SDS011;8231;50.866;7.944;2024-01-30T05:02:35;12.20;;;10.43;;
16246;SDS011;8231;50.866;7.944;2024-01-30T05:05:04;15.43;;;11.27;;
16246;SDS011;8231;50.866;7.944;2024-01-30T05:07:33;17.13;;;11.93;;
16246;SDS011;8231;50.866;7.944;2024-01-30T05:10:01;17.07;;;11.33;;
16246;SDS011;8231;50.866;7.944;2024-01-30T05:12:33;12.93;;;9.97;;
16246;SDS011;8231;50.866;7.944;2024-01-30T05:15:03;19.80;;;11.70;;
16246;SDS011;8231;50.866;7.944;2024-01-30T05:17:32;13.67;;;10.83;;
16246;SDS011;8231;50.866;7.944;2024-01-30T05:20:01;18.97;;;10.57;;
16246;SDS011;8231;50.866;7.944;2024-01-30T05:22:29;15.73;;;10.40;;
16246;SDS011;8231;50.866;7.944;2024-01-30T05:24:58;13.20;;;10.17;;
16246;SDS011;8231;50.866;7.944;2024-01-30T05:27:26;16.30;;;10.87;;
16246;SDS011;8231;50.866;7.944;2024-01-30T05:29:55;16.17;;;11.67;;
16246;SDS011;8231;50.866;7.944;2024-01-30T05:32:24;14.47;;;9.90;;
16246;SDS011;8231;50.866;7.944;2024-01-30T05:34:53;13.10;;;10.43;;
16246;SDS011;8231;50.866;7.944;2024-01-30T05:37:21;17.07;;;11.47;;
16246;SDS011;8231;50.866;7.944;2024-01-30T05:39:50;14.10;;;9.43;;
16246;SDS011;8231;50.866;7.944;2024-01-30T05:42:18;15.37;;;10.73;;
16246;SDS011;8231;50.866;7.944;2024-01-30T05:44:47;14.43;;;10.43;;
16246;SDS011;8231;50.866;7.944;2024-01-30T05:47:15;19.73;;;10.33;;
16246;SDS011;8231;50.866;7.944;2024-01-30T05:49:45;17.07;;;10.20;;
16246;SDS011;8231;50.866;7.944;2024-01-30T05:52:13;17.37;;;11.40;;
16246;SDS011;8231;50.866;7.944;2024-01-30T05:54:43;15.23;;;11.17;;
16246;SDS011;8231;50.866;7.944;2024-01-30T05:57:13;14.10;;;11.13;;
16246;SDS011;8231;50.866;7.944;2024-01-30T05:59:42;15.43;;;10.63;;
16246;SDS011;8231;50.866;7.944;2024-01-30T06:02:11;20.07;;;12.13;;
16246;SDS011;8231;50.866;7.944;2024-01-30T06:04:39;24.50;;;13.53;;
16246;SDS011;8231;50.866;7.944;2024-01-30T06:07:09;14.53;;;11.33;;
16246;SDS011;8231;50.866;7.944;2024-01-30T06:09:38;17.10;;;11.77;;
16246;SDS011;8231;50.866;7.944;2024-01-30T06:12:07;18.03;;;12.60;;
16246;SDS011;8231;50.866;7.944;2024-01-30T06:14:38;17.47;;;11.97;;
16246;SDS011;8231;50.866;7.944;2024-01-30T06:17:12;18.53;;;13.30;;
16246;SDS011;8231;50.866;7.944;2024-01-30T06:19:41;17.70;;;12.60;;
16246;SDS011;8231;50.866;7.944;2024-01-30T06:22:13;16.97;;;11.57;;
16246;SDS011;8231;50.866;7.944;2024-01-30T06:24:41;20.73;;;12.83;;
16246;SDS011;8231;50.866;7.944;2024-01-30T06:27:11;31.90;;;17.03;;
16246;SDS011;8231;50.866;7.944;2024-01-30T06:29:39;19.13;;;12.57;;
16246;SDS011;8231;50.866;7.944;2024-01-30T06:32:08;18.67;;;12.37;;
16246;SDS011;8231;50.866;7.944;2024-01-30T06:34:36;26.97;;;14.33;;
16246;SDS011;8231;50.866;7.944;2024-01-30T06:37:06;19.43;;;12.40;;
16246;SDS011;8231;50.866;7.944;2024-01-30T06:39:36;15.97;;;12.40;;
16246;SDS011;8231;50.866;7.944;2024-01-30T06:42:04;19.60;;;12.90;;
16246;SDS011;8231;50.866;7.944;2024-01-30T06:44:33;18.10;;;13.03;;
16246;SDS011;8231;50.866;7.944;2024-01-30T06:47:01;17.60;;;12.87;;
16246;SDS011;8231;50.866;7.944;2024-01-30T06:49:29;20.67;;;14.57;;
16246;SDS011;8231;50.866;7.944;2024-01-30T06:51:58;20.00;;;12.60;;
16246;SDS011;8231;50.866;7.944;2024-01-30T06:54:26;18.20;;;12.00;;
16246;SDS011;8231;50.866;7.944;2024-01-30T06:56:56;15.33;;;11.50;;
16246;SDS011;8231;50.866;7.944;2024-01-30T06:59:24;20.00;;;10.87;;
16246;SDS011;8231;50.866;7.944;2024-01-30T07:01:52;18.43;;;12.77;;
16246;SDS011;8231;50.866;7.944;2024-01-30T07:04:21;13.93;;;11.53;;
16246;SDS011;8231;50.866;7.944;2024-01-30T07:06:49;15.37;;;11.23;;
16246;SDS011;8231;50.866;7.944;2024-01-30T07:09:20;16.73;;;11.17;;
16246;SDS011;8231;50.866;7.944;2024-01-30T07:12:13;19.17;;;12.10;;
16246;SDS011;8231;50.866;7.944;2024-01-30T07:14:41;18.60;;;12.87;;
16246;SDS011;8231;50.866;7.944;2024-01-30T07:17:09;15.83;;;10.97;;
16246;SDS011;8231;50.866;7.944;2024-01-30T07:19:37;17.67;;;12.77;;
16246;SDS011;8231;50.866;7.944;2024-01-30T07:22:06;16.73;;;11.57;;
16246;SDS011;8231;50.866;7.944;2024-01-30T07:24:34;14.40;;;11.37;;
16246;SDS011;8231;50.866;7.944;2024-01-30T07:27:03;14.07;;;11.03;;
16246;SDS011;8231;50.866;7.944;2024-01-30T07:29:33;15.97;;;10.23;;
16246;SDS011;8231;50.866;7.944;2024-01-30T07:32:02;14.93;;;10.67;;
16246;SDS011;8231;50.866;7.944;2024-01-30T07:34:30;15.57;;;10.37;;
16246;SDS011;8231;50.866;7.944;2024-01-30T07:37:07;15.03;;;10.10;;
16246;SDS011;8231;50.866;7.944;2024-01-30T07:39:36;17.83;;;11.30;;
16246;SDS011;8231;50.866;7.944;2024-01-30T07:42:04;15.13;;;10.50;;
16246;SDS011;8231;50.866;7.944;2024-01-30T07:44:35;13.47;;;9.80;;
16246;SDS011;8231;50.866;7.944;2024-01-30T07:47:04;16.87;;;12.57;;
16246;SDS011;8231;50.866;7.944;2024-01-30T07:49:33;14.83;;;10.57;;
16246;SDS011;8231;50.866;7.944;2024-01-30T07:52:02;19.13;;;11.93;;
16246;SDS011;8231;50.866;7.944;2024-01-30T07:54:32;16.73;;;11.83;;
16246;SDS011;8231;50.866;7.944;2024-01-30T07:57:00;17.53;;;11.37;;
16246;SDS011;8231;50.866;7.944;2024-01-30T07:59:29;15.60;;;12.03;;
16246;SDS011;8231;50.866;7.944;2024-01-30T08:01:58;19.83;;;12.33;;
16246;SDS011;8231;50.866;7.944;2024-01-30T08:04:27;14.17;;;12.07;;
16246;SDS011;8231;50.866;7.944;2024-01-30T08:06:55;18.17;;;12.07;;
16246;SDS011;8231;50.866;7.944;2024-01-30T08:09:23;17.90;;;11.57;;
16246;SDS011;8231;50.866;7.944;2024-01-30T08:11:52;13.77;;;11.77;;
16246;SDS011;8231;50.866;7.944;2024-01-30T08:14:20;16.40;;;13.57;;
16246;SDS011;8231;50.866;7.944;2024-01-30T08:16:48;15.63;;;12.80;;
16246;SDS011;8231;50.866;7.944;2024-01-30T08:19:18;13.90;;;10.63;;
16246;SDS011;8231;50.866;7.944;2024-01-30T08:21:46;16.57;;;11.83;;
16246;SDS011;8231;50.866;7.944;2024-01-30T08:24:15;17.23;;;11.00;;
16246;SDS011;8231;50.866;7.944;2024-01-30T08:26:43;16.17;;;11.33;;
16246;SDS011;8231;50.866;7.944;2024-01-30T08:29:11;14.87;;;12.53;;
16246;SDS011;8231;50.866;7.944;2024-01-30T08:31:40;15.10;;;13.43;;
16246;SDS011;8231;50.866;7.944;2024-01-30T08:34:08;16.13;;;12.37;;
16246;SDS011;8231;50.866;7.944;2024-01-30T08:36:38;18.00;;;12.97;;
16246;SDS011;8231;50.866;7.944;2024-01-30T08:39:06;15.67;;;13.53;;
16246;SDS011;8231;50.866;7.944;2024-01-30T08:41:35;18.87;;;13.97;;
16246;SDS011;8231;50.866;7.944;2024-01-30T08:44:03;14.90;;;13.33;;
16246;SDS011;8231;50.866;7.944;2024-01-30T08:46:31;17.73;;;13.73;;
16246;SDS011;8231;50.866;7.944;2024-01-30T08:49:00;14.67;;;12.67;;
16246;SDS011;8231;50.866;7.944;2024-01-30T08:51:30;13.70;;;12.30;;
16246;SDS011;8231;50.866;7.944;2024-01-30T08:54:00;14.77;;;12.87;;
16246;SDS011;8231;50.866;7.944;2024-01-30T08:56:29;13.67;;;12.37;;
16246;SDS011;8231;50.866;7.944;2024-01-30T08:58:57;15.87;;;13.30;;
16246;SDS011;8231;50.866;7.944;2024-01-30T09:01:25;13.97;;;12.47;;
16246;SDS011;8231;50.866;7.944;2024-01-30T09:03:54;14.63;;;13.13;;
16246;SDS011;8231;50.866;7.944;2024-01-30T09:06:23;15.70;;;13.07;;
16246;SDS011;8231;50.866;7.944;2024-01-30T09:08:53;16.70;;;13.50;;
16246;SDS011;8231;50.866;7.944;2024-01-30T09:11:22;13.93;;;12.50;;
16246;SDS011;8231;50.866;7.944;2024-01-30T09:13:51;14.33;;;12.77;;
16246;SDS011;8231;50.866;7.944;2024-01-30T09:16:19;14.60;;;13.00;;
16246;SDS011;8231;50.866;7.944;2024-01-30T09:18:47;16.80;;;14.33;;
16246;SDS011;8231;50.866;7.944;2024-01-30T09:21:16;16.13;;;13.10;;
16246;SDS011;8231;50.866;7.944;2024-01-30T09:23:44;16.70;;;13.38;;
16246;SDS011;8231;50.866;7.944;2024-01-30T09:26:12;15.93;;;12.67;;
16246;SDS011;8231;50.866;7.944;2024-01-30T09:28:42;15.30;;;13.50;;
16246;SDS011;8231;50.866;7.944;2024-01-30T09:31:10;17.13;;;15.30;;
16246;SDS011;8231;50.866;7.944;2024-01-30T09:33:38;19.45;;;16.50;;
16246;SDS011;8231;50.866;7.944;2024-01-30T09:36:08;20.88;;;16.90;;
16246;SDS011;8231;50.866;7.944;2024-01-30T09:38:36;18.30;;;16.17;;
16246;SDS011;8231;50.866;7.944;2024-01-30T09:41:04;22.13;;;18.33;;
16246;SDS011;8231;50.866;7.944;2024-01-30T09:43:36;26.63;;;22.95;;
16246;SDS011;8231;50.866;7.944;2024-01-30T09:46:07;24.98;;;21.00;;
16246;SDS011;8231;50.866;7.944;2024-01-30T09:48:39;23.00;;;18.77;;
16246;SDS011;8231;50.866;7.944;2024-01-30T09:51:09;23.70;;;19.27;;
16246;SDS011;8231;50.866;7.944;2024-01-30T09:53:38;41.50;;;31.10;;
16246;SDS011;8231;50.866;7.944;2024-01-30T09:56:09;38.35;;;31.40;;
16246;SDS011;8231;50.866;7.944;2024-01-30T09:58:38;34.70;;;29.00;;
16246;SDS011;8231;50.866;7.944;2024-01-30T10:01:08;40.75;;;33.17;;
16246;SDS011;8231;50.866;7.944;2024-01-30T10:03:37;41.83;;;32.65;;
16246;SDS011;8231;50.866;7.944;2024-01-30T10:06:06;37.25;;;31.63;;
16246;SDS011;8231;50.866;7.944;2024-01-30T10:08:36;35.33;;;31.30;;
16246;SDS011;8231;50.866;7.944;2024-01-30T10:11:04;38.17;;;32.28;;
16246;SDS011;8231;50.866;7.944;2024-01-30T10:13:33;34.78;;;31.05;;
16246;SDS011;8231;50.866;7.944;2024-01-30T10:16:01;36.13;;;31.58;;
16246;SDS011;8231;50.866;7.944;2024-01-30T10:18:31;37.28;;;28.83;;
16246;SDS011;8231;50.866;7.944;2024-01-30T10:20:59;31.73;;;28.48;;
16246;SDS011;8231;50.866;7.944;2024-01-30T10:23:28;29.73;;;26.73;;
16246;SDS011;8231;50.866;7.944;2024-01-30T10:26:02;27.73;;;24.80;;
16246;SDS011;8231;50.866;7.944;2024-01-30T10:28:31;32.85;;;29.58;;
16246;SDS011;8231;50.866;7.944;2024-01-30T10:30:59;29.65;;;26.70;;
16246;SDS011;8231;50.866;7.944;2024-01-30T10:33:34;32.20;;;28.80;;
16246;SDS011;8231;50.866;7.944;2024-01-30T10:36:03;34.95;;;31.15;;
16246;SDS011;8231;50.866;7.944;2024-01-30T10:38:32;32.53;;;28.92;;
16246;SDS011;8231;50.866;7.944;2024-01-30T10:41:01;31.63;;;28.42;;
16246;SDS011;8231;50.866;7.944;2024-01-30T10:43:30;37.20;;;31.48;;
16246;SDS011;8231;50.866;7.944;2024-01-30T10:46:03;37.97;;;33.88;;
16246;SDS011;8231;50.866;7.944;2024-01-30T10:48:41;34.33;;;30.30;;
16246;SDS011;8231;50.866;7.944;2024-01-30T10:51:11;33.33;;;28.95;;
16246;SDS011;8231;50.866;7.944;2024-01-30T10:53:41;30.88;;;27.77;;
16246;SDS011;8231;50.866;7.944;2024-01-30T10:56:11;29.75;;;26.65;;
16246;SDS011;8231;50.866;7.944;2024-01-30T10:58:40;31.40;;;28.20;;
16246;SDS011;8231;50.866;7.944;2024-01-30T11:01:08;30.88;;;27.60;;
16246;SDS011;8231;50.866;7.944;2024-01-30T11:03:37;27.77;;;24.88;;
16246;SDS011;8231;50.866;7.944;2024-01-30T11:06:10;28.00;;;24.38;;
16246;SDS011;8231;50.866;7.944;2024-01-30T11:08:40;26.55;;;23.73;;
16246;SDS011;8231;50.866;7.944;2024-01-30T11:11:09;28.23;;;25.23;;
16246;SDS011;8231;50.866;7.944;2024-01-30T11:13:41;30.33;;;27.23;;
16246;SDS011;8231;50.866;7.944;2024-01-30T11:16:09;26.42;;;23.73;;
16246;SDS011;8231;50.866;7.944;2024-01-30T11:18:41;27.15;;;22.58;;
16246;SDS011;8231;50.866;7.944;2024-01-30T11:21:09;24.73;;;22.13;;
16246;SDS011;8231;50.866;7.944;2024-01-30T11:23:41;24.63;;;22.05;;
16246;SDS011;8231;50.866;7.944;2024-01-30T11:26:10;24.90;;;22.40;;
16246;SDS011;8231;50.866;7.944;2024-01-30T11:28:38;28.23;;;24.45;;
16246;SDS011;8231;50.866;7.944;2024-01-30T11:31:07;28.60;;;25.65;;
16246;SDS011;8231;50.866;7.944;2024-01-30T11:33:35;26.90;;;23.20;;
16246;SDS011;8231;50.866;7.944;2024-01-30T11:36:06;29.25;;;26.10;;
16246;SDS011;8231;50.866;7.944;2024-01-30T11:38:35;31.23;;;26.70;;
16246;SDS011;8231;50.866;7.944;2024-01-30T11:41:06;29.08;;;25.27;;
16246;SDS011;8231;50.866;7.944;2024-01-30T11:43:35;29.42;;;26.23;;
16246;SDS011;8231;50.866;7.944;2024-01-30T11:46:05;42.60;;;33.58;;
16246;SDS011;8231;50.866;7.944;2024-01-30T11:48:35;35.90;;;27.13;;
16246;SDS011;8231;50.866;7.944;2024-01-30T11:51:03;25.67;;;19.33;;
16246;SDS011;8231;50.866;7.944;2024-01-30T11:53:33;21.85;;;18.02;;
16246;SDS011;8231;50.866;7.944;2024-01-30T11:56:01;15.70;;;12.77;;
16246;SDS011;8231;50.866;7.944;2024-01-30T11:58:30;13.23;;;11.82;;
16246;SDS011;8231;50.866;7.944;2024-01-30T12:00:58;21.85;;;18.42;;
16246;SDS011;8231;50.866;7.944;2024-01-30T12:03:27;25.83;;;22.55;;
16246;SDS011;8231;50.866;7.944;2024-01-30T12:05:56;25.55;;;22.75;;
16246;SDS011;8231;50.866;7.944;2024-01-30T12:08:26;24.65;;;21.98;;
16246;SDS011;8231;50.866;7.944;2024-01-30T12:10:56;24.88;;;20.95;;
16246;SDS011;8231;50.866;7.944;2024-01-30T12:13:27;22.60;;;20.17;;
16246;SDS011;8231;50.866;7.944;2024-01-30T12:15:59;23.70;;;20.42;;
16246;SDS011;8231;50.866;7.944;2024-01-30T12:18:28;20.88;;;18.58;;
16246;SDS011;8231;50.866;7.944;2024-01-30T12:20:58;20.40;;;18.20;;
16246;SDS011;8231;50.866;7.944;2024-01-30T12:23:27;21.02;;;18.83;;
16246;SDS011;8231;50.866;7.944;2024-01-30T12:25:57;15.48;;;13.98;;
16246;SDS011;8231;50.866;7.944;2024-01-30T12:28:26;13.73;;;12.10;;
16246;SDS011;8231;50.866;7.944;2024-01-30T12:30:55;12.05;;;10.95;;
16246;SDS011;8231;50.866;7.944;2024-01-30T12:33:26;11.43;;;10.27;;
16246;SDS011;8231;50.866;7.944;2024-01-30T12:35:55;11.48;;;9.60;;
16246;SDS011;8231;50.866;7.944;2024-01-30T12:38:29;11.43;;;10.13;;
16246;SDS011;8231;50.866;7.944;2024-01-30T12:40:59;12.95;;;11.52;;
16246;SDS011;8231;50.866;7.944;2024-01-30T12:43:27;13.50;;;11.52;;
16246;SDS011;8231;50.866;7.944;2024-01-30T12:46:04;13.68;;;10.90;;
16246;SDS011;8231;50.866;7.944;2024-01-30T12:48:33;13.48;;;9.38;;
16246;SDS011;8231;50.866;7.944;2024-01-30T12:51:02;9.60;;;8.55;;
16246;SDS011;8231;50.866;7.944;2024-01-30T12:53:31;11.10;;;8.55;;
16246;SDS011;8231;50.866;7.944;2024-01-30T12:56:00;9.63;;;8.63;;
16246;SDS011;8231;50.866;7.944;2024-01-30T12:58:29;10.35;;;9.27;;
16246;SDS011;8231;50.866;7.944;2024-01-30T13:00:57;10.55;;;9.50;;
16246;SDS011;8231;50.866;7.944;2024-01-30T13:03:25;10.02;;;9.02;;
16246;SDS011;8231;50.866;7.944;2024-01-30T13:05:54;11.82;;;9.38;;
16246;SDS011;8231;50.866;7.944;2024-01-30T13:08:23;10.50;;;9.27;;
16246;SDS011;8231;50.866;7.944;2024-01-30T13:10:51;11.45;;;9.52;;
16246;SDS011;8231;50.866;7.944;2024-01-30T13:13:20;10.88;;;9.80;;
16246;SDS011;8231;50.866;7.944;2024-01-30T13:15:49;9.30;;;8.40;;
16246;SDS011;8231;50.866;7.944;2024-01-30T13:18:17;8.35;;;7.55;;
16246;SDS011;8231;50.866;7.944;2024-01-30T13:20:45;11.05;;;8.25;;
16246;SDS011;8231;50.866;7.944;2024-01-30T13:23:14;9.32;;;8.38;;
16246;SDS011;8231;50.866;7.944;2024-01-30T13:25:42;8.52;;;7.68;;
16246;SDS011;8231;50.866;7.944;2024-01-30T13:28:10;8.43;;;7.50;;
16246;SDS011;8231;50.866;7.944;2024-01-30T13:30:40;11.50;;;10.07;;
16246;SDS011;8231;50.866;7.944;2024-01-30T13:33:08;10.60;;;9.02;;
16246;SDS011;8231;50.866;7.944;2024-01-30T13:35:36;9.57;;;8.68;;
16246;SDS011;8231;50.866;7.944;2024-01-30T13:38:05;8.82;;;8.07;;
16246;SDS011;8231;50.866;7.944;2024-01-30T13:40:33;8.65;;;7.85;;
16246;SDS011;8231;50.866;7.944;2024-01-30T13:43:02;8.27;;;7.13;;
16246;SDS011;8231;50.866;7.944;2024-01-30T13:45:30;8.68;;;7.82;;
16246;SDS011;8231;50.866;7.944;2024-01-30T13:48:00;9.70;;;8.73;;
16246;SDS011;8231;50.866;7.944;2024-01-30T13:50:30;10.55;;;8.88;;
16246;SDS011;8231;50.866;7.944;2024-01-30T13:52:59;8.50;;;7.68;;
16246;SDS011;8231;50.866;7.944;2024-01-30T13:55:28;9.65;;;8.73;;
16246;SDS011;8231;50.866;7.944;2024-01-30T13:57:56;9.60;;;8.68;;
16246;SDS011;8231;50.866;7.944;2024-01-30T14:00:24;8.98;;;8.07;;
16246;SDS011;8231;50.866;7.944;2024-01-30T14:02:52;8.15;;;7.35;;
16246;SDS011;8231;50.866;7.944;2024-01-30T14:05:23;7.15;;;6.45;;
16246;SDS011;8231;50.866;7.944;2024-01-30T14:07:52;6.57;;;5.90;;
16246;SDS011;8231;50.866;7.944;2024-01-30T14:10:21;8.40;;;7.65;;
16246;SDS011;8231;50.866;7.944;2024-01-30T14:12:49;7.35;;;6.68;;
16246;SDS011;8231;50.866;7.944;2024-01-30T14:15:17;7.07;;;6.20;;
16246;SDS011;8231;50.866;7.944;2024-01-30T14:17:55;8.05;;;7.07;;
16246;SDS011;8231;50.866;7.944;2024-01-30T14:20:26;7.70;;;6.95;;
16246;SDS011;8231;50.866;7.944;2024-01-30T14:22:55;8.93;;;6.90;;
16246;SDS011;8231;50.866;7.944;2024-01-30T14:25:23;7.38;;;6.72;;
16246;SDS011;8231;50.866;7.944;2024-01-30T14:27:52;6.78;;;6.18;;
16246;SDS011;8231;50.866;7.944;2024-01-30T14:30:20;6.93;;;6.32;;
16246;SDS011;8231;50.866;7.944;2024-01-30T14:32:49;5.93;;;5.43;;
16246;SDS011;8231;50.866;7.944;2024-01-30T14:35:17;8.48;;;6.43;;
16246;SDS011;8231;50.866;7.944;2024-01-30T14:37:48;7.47;;;6.70;;
16246;SDS011;8231;50.866;7.944;2024-01-30T14:40:17;6.35;;;5.75;;
16246;SDS011;8231;50.866;7.944;2024-01-30T14:42:45;7.05;;;6.35;;
16246;SDS011;8231;50.866;7.944;2024-01-30T14:45:14;6.68;;;6.00;;
16246;SDS011;8231;50.866;7.944;2024-01-30T14:47:43;6.78;;;6.07;;
16246;SDS011;8231;50.866;7.944;2024-01-30T14:50:12;7.03;;;6.20;;